sensor_id;sensor_type;location;lat;lon;timestamp;temperature;humidity
68719;DHT22;55696;52.138;5.444;2023-11-19T00:01:59;16.30;76.40
68719;DHT22;55696;52.138;5.444;2023-11-19T00:04:26;16.30;76.40
68719;DHT22;55696;52.138;5.444;2023-11-19T00:06:52;16.30;76.30
68719;DHT22;55696;52.138;5.444;2023-11-19T00:09:19;17.20;76.80
68719;DHT22;55696;52.138;5.444;2023-11-19T00:11:46;16.30;76.30
68719;DHT22;55696;52.138;5.444;2023-11-19T00:14:16;16.30;76.20
68719;DHT22;55696;52.138;5.444;2023-11-19T00:16:43;16.30;76.20
68719;DHT22;55696;52.138;5.444;2023-11-19T00:19:11;16.20;76.10
68719;DHT22;55696;52.138;5.444;2023-11-19T00:21:38;16.20;76.20
68719;DHT22;55696;52.138;5.444;2023-11-19T00:24:05;16.30;76.30
68719;DHT22;55696;52.138;5.444;2023-11-19T00:26:32;16.40;76.50
68719;DHT22;55696;52.138;5.444;2023-11-19T00:28:59;16.10;76.20
68719;DHT22;55696;52.138;5.444;2023-11-19T00:31:26;16.10;76.40
68719;DHT22;55696;52.138;5.444;2023-11-19T00:33:54;16.20;76.30
68719;DHT22;55696;52.138;5.444;2023-11-19T00:36:21;16.30;76.40
68719;DHT22;55696;52.138;5.444;2023-11-19T00:38:50;16.20;76.30
68719;DHT22;55696;52.138;5.444;2023-11-19T00:41:19;16.20;76.30
68719;DHT22;55696;52.138;5.444;2023-11-19T00:43:46;16.20;76.40
68719;DHT22;55696;52.138;5.444;2023-11-19T00:46:13;16.20;76.40
68719;DHT22;55696;52.138;5.444;2023-11-19T00:48:43;16.20;76.10
68719;DHT22;55696;52.138;5.444;2023-11-19T00:51:11;16.20;76.30
68719;DHT22;55696;52.138;5.444;2023-11-19T00:53:38;16.30;77.70
68719;DHT22;55696;52.138;5.444;2023-11-19T00:56:05;16.50;76.60
68719;DHT22;55696;52.138;5.444;2023-11-19T00:58:32;16.20;76.50
68719;DHT22;55696;52.138;5.444;2023-11-19T01:00:59;16.10;76.20
68719;DHT22;55696;52.138;5.444;2023-11-19T01:03:26;16.90;76.50
68719;DHT22;55696;52.138;5.444;2023-11-19T01:05:53;16.20;76.20
68719;DHT22;55696;52.138;5.444;2023-11-19T01:08:20;16.20;76.20
68719;DHT22;55696;52.138;5.444;2023-11-19T01:10:47;17.30;76.70
68719;DHT22;55696;52.138;5.444;2023-11-19T01:13:14;16.80;76.50
68719;DHT22;55696;52.138;5.444;2023-11-19T01:15:41;16.20;76.20
68719;DHT22;55696;52.138;5.444;2023-11-19T01:18:08;16.10;76.20
68719;DHT22;55696;52.138;5.444;2023-11-19T01:20:36;16.20;76.20
68719;DHT22;55696;52.138;5.444;2023-11-19T01:23:03;16.20;76.60
68719;DHT22;55696;52.138;5.444;2023-11-19T01:25:30;17.00;76.40
68719;DHT22;55696;52.138;5.444;2023-11-19T01:27:57;16.30;76.00
68719;DHT22;55696;52.138;5.444;2023-11-19T01:30:25;16.30;75.70
68719;DHT22;55696;52.138;5.444;2023-11-19T01:32:52;16.30;75.70
68719;DHT22;55696;52.138;5.444;2023-11-19T01:35:19;16.00;75.60
68719;DHT22;55696;52.138;5.444;2023-11-19T01:37:46;16.20;75.70
68719;DHT22;55696;52.138;5.444;2023-11-19T01:40:12;16.20;75.80
68719;DHT22;55696;52.138;5.444;2023-11-19T01:42:40;16.30;75.70
68719;DHT22;55696;52.138;5.444;2023-11-19T01:45:08;16.20;76.00
68719;DHT22;55696;52.138;5.444;2023-11-19T01:47:36;16.30;75.90
68719;DHT22;55696;52.138;5.444;2023-11-19T01:50:03;16.10;75.60
68719;DHT22;55696;52.138;5.444;2023-11-19T01:52:34;16.30;75.70
68719;DHT22;55696;52.138;5.444;2023-11-19T01:55:07;16.60;76.50
68719;DHT22;55696;52.138;5.444;2023-11-19T01:57:35;16.40;76.30
68719;DHT22;55696;52.138;5.444;2023-11-19T02:00:08;16.20;75.30
68719;DHT22;55696;52.138;5.444;2023-11-19T02:02:43;16.30;76.40
68719;DHT22;55696;52.138;5.444;2023-11-19T02:05:12;16.20;75.60
68719;DHT22;55696;52.138;5.444;2023-11-19T02:07:43;16.20;75.20
68719;DHT22;55696;52.138;5.444;2023-11-19T02:10:10;16.30;75.00
68719;DHT22;55696;52.138;5.444;2023-11-19T02:12:41;16.20;75.50
68719;DHT22;55696;52.138;5.444;2023-11-19T02:15:11;16.10;75.00
68719;DHT22;55696;52.138;5.444;2023-11-19T02:17:38;16.00;74.90
68719;DHT22;55696;52.138;5.444;2023-11-19T02:20:05;16.80;75.30
68719;DHT22;55696;52.138;5.444;2023-11-19T02:22:38;16.10;75.20
68719;DHT22;55696;52.138;5.444;2023-11-19T02:25:07;16.40;75.50
68719;DHT22;55696;52.138;5.444;2023-11-19T02:27:53;16.10;76.40
68719;DHT22;55696;52.138;5.444;2023-11-19T02:30:23;15.90;77.20
68719;DHT22;55696;52.138;5.444;2023-11-19T02:32:57;15.90;75.40
68719;DHT22;55696;52.138;5.444;2023-11-19T02:35:25;15.80;75.60
68719;DHT22;55696;52.138;5.444;2023-11-19T02:37:55;15.80;75.60
68719;DHT22;55696;52.138;5.444;2023-11-19T02:40:23;15.80;74.90
68719;DHT22;55696;52.138;5.444;2023-11-19T02:42:53;15.60;75.00
68719;DHT22;55696;52.138;5.444;2023-11-19T02:45:24;15.60;75.40
68719;DHT22;55696;52.138;5.444;2023-11-19T02:47:52;17.30;76.40
68719;DHT22;55696;52.138;5.444;2023-11-19T02:50:20;15.60;75.70
68719;DHT22;55696;52.138;5.444;2023-11-19T02:52:53;15.60;75.90
68719;DHT22;55696;52.138;5.444;2023-11-19T02:55:23;15.50;75.80
68719;DHT22;55696;52.138;5.444;2023-11-19T02:57:51;15.60;75.50
68719;DHT22;55696;52.138;5.444;2023-11-19T03:00:22;15.50;76.00
68719;DHT22;55696;52.138;5.444;2023-11-19T03:02:59;15.70;76.00
68719;DHT22;55696;52.138;5.444;2023-11-19T03:05:27;15.60;74.80
68719;DHT22;55696;52.138;5.444;2023-11-19T03:07:57;16.30;75.80
68719;DHT22;55696;52.138;5.444;2023-11-19T03:10:24;16.30;75.10
68719;DHT22;55696;52.138;5.444;2023-11-19T03:12:51;15.60;74.70
68719;DHT22;55696;52.138;5.444;2023-11-19T03:15:18;15.50;75.10
68719;DHT22;55696;52.138;5.444;2023-11-19T03:17:45;15.50;75.00
68719;DHT22;55696;52.138;5.444;2023-11-19T03:20:12;15.40;74.60
68719;DHT22;55696;52.138;5.444;2023-11-19T03:22:44;15.40;74.80
68719;DHT22;55696;52.138;5.444;2023-11-19T03:25:10;15.30;75.30
68719;DHT22;55696;52.138;5.444;2023-11-19T03:27:38;15.10;74.70
68719;DHT22;55696;52.138;5.444;2023-11-19T03:30:06;15.30;75.00
68719;DHT22;55696;52.138;5.444;2023-11-19T03:32:33;15.30;75.40
68719;DHT22;55696;52.138;5.444;2023-11-19T03:35:05;15.30;75.00
68719;DHT22;55696;52.138;5.444;2023-11-19T03:37:33;15.30;76.40
68719;DHT22;55696;52.138;5.444;2023-11-19T03:40:00;15.20;74.80
68719;DHT22;55696;52.138;5.444;2023-11-19T03:42:29;15.10;74.80
68719;DHT22;55696;52.138;5.444;2023-11-19T03:44:57;15.10;75.40
68719;DHT22;55696;52.138;5.444;2023-11-19T03:47:24;15.00;74.90
68719;DHT22;55696;52.138;5.444;2023-11-19T03:49:53;15.10;75.00
68719;DHT22;55696;52.138;5.444;2023-11-19T03:52:20;14.90;74.80
68719;DHT22;55696;52.138;5.444;2023-11-19T03:54:47;14.90;74.80
68719;DHT22;55696;52.138;5.444;2023-11-19T03:57:14;14.90;74.90
68719;DHT22;55696;52.138;5.444;2023-11-19T03:59:42;14.90;74.90
68719;DHT22;55696;52.138;5.444;2023-11-19T04:02:08;14.90;74.80
68719;DHT22;55696;52.138;5.444;2023-11-19T04:04:35;14.90;74.90
68719;DHT22;55696;52.138;5.444;2023-11-19T04:07:02;14.90;75.00
68719;DHT22;55696;52.138;5.444;2023-11-19T04:09:29;14.90;75.00
68719;DHT22;55696;52.138;5.444;2023-11-19T04:11:57;14.90;74.90
68719;DHT22;55696;52.138;5.444;2023-11-19T04:14:24;14.90;75.10
68719;DHT22;55696;52.138;5.444;2023-11-19T04:16:51;14.80;75.00
68719;DHT22;55696;52.138;5.444;2023-11-19T04:19:19;14.80;74.90
68719;DHT22;55696;52.138;5.444;2023-11-19T04:21:46;14.70;75.20
68719;DHT22;55696;52.138;5.444;2023-11-19T04:24:13;14.80;74.80
68719;DHT22;55696;52.138;5.444;2023-11-19T04:26:44;14.80;74.80
68719;DHT22;55696;52.138;5.444;2023-11-19T04:29:13;14.80;76.50
68719;DHT22;55696;52.138;5.444;2023-11-19T04:31:39;14.60;75.40
68719;DHT22;55696;52.138;5.444;2023-11-19T04:34:07;14.90;74.80
68719;DHT22;55696;52.138;5.444;2023-11-19T04:36:34;14.80;74.80
68719;DHT22;55696;52.138;5.444;2023-11-19T04:39:01;14.80;75.20
68719;DHT22;55696;52.138;5.444;2023-11-19T04:41:28;14.80;75.10
68719;DHT22;55696;52.138;5.444;2023-11-19T04:43:55;14.70;74.60
68719;DHT22;55696;52.138;5.444;2023-11-19T04:46:22;14.70;74.70
68719;DHT22;55696;52.138;5.444;2023-11-19T04:48:50;15.30;75.30
68719;DHT22;55696;52.138;5.444;2023-11-19T04:51:17;14.70;74.50
68719;DHT22;55696;52.138;5.444;2023-11-19T04:53:44;14.70;74.60
68719;DHT22;55696;52.138;5.444;2023-11-19T04:56:11;14.70;74.70
68719;DHT22;55696;52.138;5.444;2023-11-19T04:58:38;14.70;75.00
68719;DHT22;55696;52.138;5.444;2023-11-19T05:01:05;14.60;74.40
68719;DHT22;55696;52.138;5.444;2023-11-19T05:03:32;14.70;74.60
68719;DHT22;55696;52.138;5.444;2023-11-19T05:05:59;14.60;74.30
68719;DHT22;55696;52.138;5.444;2023-11-19T05:08:26;14.70;74.10
68719;DHT22;55696;52.138;5.444;2023-11-19T05:10:52;15.40;74.50
68719;DHT22;55696;52.138;5.444;2023-11-19T05:13:19;14.60;74.00
68719;DHT22;55696;52.138;5.444;2023-11-19T05:15:46;14.60;74.10
68719;DHT22;55696;52.138;5.444;2023-11-19T05:18:13;14.70;74.20
68719;DHT22;55696;52.138;5.444;2023-11-19T05:20:40;14.50;73.90
68719;DHT22;55696;52.138;5.444;2023-11-19T05:23:07;14.70;73.70
68719;DHT22;55696;52.138;5.444;2023-11-19T05:25:47;14.60;73.70
68719;DHT22;55696;52.138;5.444;2023-11-19T05:28:14;14.60;73.70
68719;DHT22;55696;52.138;5.444;2023-11-19T05:30:41;14.60;73.60
68719;DHT22;55696;52.138;5.444;2023-11-19T05:33:08;15.10;73.90
68719;DHT22;55696;52.138;5.444;2023-11-19T05:35:34;14.50;73.50
68719;DHT22;55696;52.138;5.444;2023-11-19T05:38:02;14.30;73.40
68719;DHT22;55696;52.138;5.444;2023-11-19T05:40:29;16.10;74.40
68719;DHT22;55696;52.138;5.444;2023-11-19T05:42:55;14.50;73.60
68719;DHT22;55696;52.138;5.444;2023-11-19T05:45:22;14.50;73.70
68719;DHT22;55696;52.138;5.444;2023-11-19T05:47:49;15.50;74.20
68719;DHT22;55696;52.138;5.444;2023-11-19T05:50:16;14.40;73.60
68719;DHT22;55696;52.138;5.444;2023-11-19T05:52:43;14.40;73.60
68719;DHT22;55696;52.138;5.444;2023-11-19T05:55:10;14.30;73.50
68719;DHT22;55696;52.138;5.444;2023-11-19T05:57:37;14.30;73.70
68719;DHT22;55696;52.138;5.444;2023-11-19T06:00:08;14.30;73.60
68719;DHT22;55696;52.138;5.444;2023-11-19T06:02:39;14.50;74.10
68719;DHT22;55696;52.138;5.444;2023-11-19T06:05:07;14.40;73.70
68719;DHT22;55696;52.138;5.444;2023-11-19T06:07:34;14.40;73.70
68719;DHT22;55696;52.138;5.444;2023-11-19T06:10:02;14.40;73.70
68719;DHT22;55696;52.138;5.444;2023-11-19T06:12:36;14.40;73.90
68719;DHT22;55696;52.138;5.444;2023-11-19T06:15:05;14.30;75.30
68719;DHT22;55696;52.138;5.444;2023-11-19T06:17:32;14.40;74.10
68719;DHT22;55696;52.138;5.444;2023-11-19T06:19:59;14.40;73.70
68719;DHT22;55696;52.138;5.444;2023-11-19T06:22:26;14.40;73.60
68719;DHT22;55696;52.138;5.444;2023-11-19T06:24:53;14.30;73.50
68719;DHT22;55696;52.138;5.444;2023-11-19T06:27:21;14.30;73.50
68719;DHT22;55696;52.138;5.444;2023-11-19T06:29:48;14.30;74.50
68719;DHT22;55696;52.138;5.444;2023-11-19T06:32:16;14.40;73.50
68719;DHT22;55696;52.138;5.444;2023-11-19T06:34:42;14.40;73.40
68719;DHT22;55696;52.138;5.444;2023-11-19T06:37:09;14.30;73.40
68719;DHT22;55696;52.138;5.444;2023-11-19T06:39:36;14.40;73.40
68719;DHT22;55696;52.138;5.444;2023-11-19T06:42:04;14.20;73.30
68719;DHT22;55696;52.138;5.444;2023-11-19T06:44:31;14.30;73.50
68719;DHT22;55696;52.138;5.444;2023-11-19T06:46:58;16.60;74.60
68719;DHT22;55696;52.138;5.444;2023-11-19T06:49:25;14.30;73.50
68719;DHT22;55696;52.138;5.444;2023-11-19T06:51:52;14.20;73.40
68719;DHT22;55696;52.138;5.444;2023-11-19T06:54:18;14.30;73.40
68719;DHT22;55696;52.138;5.444;2023-11-19T06:56:45;14.30;73.50
68719;DHT22;55696;52.138;5.444;2023-11-19T06:59:14;14.30;73.40
68719;DHT22;55696;52.138;5.444;2023-11-19T07:01:41;14.20;73.30
68719;DHT22;55696;52.138;5.444;2023-11-19T07:04:11;14.30;73.20
68719;DHT22;55696;52.138;5.444;2023-11-19T07:06:39;14.40;74.20
68719;DHT22;55696;52.138;5.444;2023-11-19T07:09:08;14.70;73.80
68719;DHT22;55696;52.138;5.444;2023-11-19T07:11:39;14.50;73.50
68719;DHT22;55696;52.138;5.444;2023-11-19T07:14:07;14.40;73.80
68719;DHT22;55696;52.138;5.444;2023-11-19T07:16:34;14.50;73.90
68719;DHT22;55696;52.138;5.444;2023-11-19T07:19:06;14.40;73.60
68719;DHT22;55696;52.138;5.444;2023-11-19T07:21:34;14.50;73.10
68719;DHT22;55696;52.138;5.444;2023-11-19T07:24:02;14.90;73.80
68719;DHT22;55696;52.138;5.444;2023-11-19T07:26:29;14.50;74.30
68719;DHT22;55696;52.138;5.444;2023-11-19T07:28:56;14.20;73.00
68719;DHT22;55696;52.138;5.444;2023-11-19T07:31:23;14.40;73.10
68719;DHT22;55696;52.138;5.444;2023-11-19T07:33:50;14.90;73.40
68719;DHT22;55696;52.138;5.444;2023-11-19T07:36:17;15.10;73.30
68719;DHT22;55696;52.138;5.444;2023-11-19T07:38:45;14.60;73.10
68719;DHT22;55696;52.138;5.444;2023-11-19T07:41:13;14.60;73.90
68719;DHT22;55696;52.138;5.444;2023-11-19T07:43:44;14.60;73.00
68719;DHT22;55696;52.138;5.444;2023-11-19T07:46:11;14.60;73.20
68719;DHT22;55696;52.138;5.444;2023-11-19T07:48:41;14.50;73.20
68719;DHT22;55696;52.138;5.444;2023-11-19T07:51:11;14.50;72.60
68719;DHT22;55696;52.138;5.444;2023-11-19T07:53:38;14.60;74.00
68719;DHT22;55696;52.138;5.444;2023-11-19T07:56:05;14.50;72.60
68719;DHT22;55696;52.138;5.444;2023-11-19T07:58:32;14.70;72.80
68719;DHT22;55696;52.138;5.444;2023-11-19T08:00:59;14.70;72.60
68719;DHT22;55696;52.138;5.444;2023-11-19T08:03:26;14.60;72.50
68719;DHT22;55696;52.138;5.444;2023-11-19T08:05:55;14.60;72.40
68719;DHT22;55696;52.138;5.444;2023-11-19T08:08:23;14.50;73.60
68719;DHT22;55696;52.138;5.444;2023-11-19T08:10:50;14.70;72.40
68719;DHT22;55696;52.138;5.444;2023-11-19T08:13:18;14.70;72.30
68719;DHT22;55696;52.138;5.444;2023-11-19T08:15:47;15.60;73.20
68719;DHT22;55696;52.138;5.444;2023-11-19T08:18:14;14.70;72.40
68719;DHT22;55696;52.138;5.444;2023-11-19T08:20:41;14.60;72.20
68719;DHT22;55696;52.138;5.444;2023-11-19T08:23:09;14.50;72.20
68719;DHT22;55696;52.138;5.444;2023-11-19T08:25:36;14.70;72.40
68719;DHT22;55696;52.138;5.444;2023-11-19T08:28:03;14.60;72.30
68719;DHT22;55696;52.138;5.444;2023-11-19T08:30:30;14.80;72.40
68719;DHT22;55696;52.138;5.444;2023-11-19T08:32:57;17.00;73.90
68719;DHT22;55696;52.138;5.444;2023-11-19T08:35:25;14.70;72.50
68719;DHT22;55696;52.138;5.444;2023-11-19T08:37:52;15.20;72.80
68719;DHT22;55696;52.138;5.444;2023-11-19T08:40:19;15.20;72.60
68719;DHT22;55696;52.138;5.444;2023-11-19T08:42:46;14.70;72.20
68719;DHT22;55696;52.138;5.444;2023-11-19T08:45:13;14.90;72.30
68719;DHT22;55696;52.138;5.444;2023-11-19T08:47:41;15.00;72.20
68719;DHT22;55696;52.138;5.444;2023-11-19T08:50:08;15.00;72.20
68719;DHT22;55696;52.138;5.444;2023-11-19T08:52:35;15.10;72.10
68719;DHT22;55696;52.138;5.444;2023-11-19T08:55:02;14.80;71.60
68719;DHT22;55696;52.138;5.444;2023-11-19T08:57:29;15.10;71.50
68719;DHT22;55696;52.138;5.444;2023-11-19T08:59:56;15.30;71.30
68719;DHT22;55696;52.138;5.444;2023-11-19T09:02:23;15.00;71.00
68719;DHT22;55696;52.138;5.444;2023-11-19T09:04:50;14.90;70.90
68719;DHT22;55696;52.138;5.444;2023-11-19T09:07:20;15.00;70.80
68719;DHT22;55696;52.138;5.444;2023-11-19T09:09:47;15.50;70.90
68719;DHT22;55696;52.138;5.444;2023-11-19T09:12:14;15.20;70.50
68719;DHT22;55696;52.138;5.444;2023-11-19T09:14:41;15.30;70.50
68719;DHT22;55696;52.138;5.444;2023-11-19T09:17:08;15.90;70.50
68719;DHT22;55696;52.138;5.444;2023-11-19T09:19:37;15.50;70.10
68719;DHT22;55696;52.138;5.444;2023-11-19T09:22:04;15.90;70.70
68719;DHT22;55696;52.138;5.444;2023-11-19T09:24:30;15.60;70.20
68719;DHT22;55696;52.138;5.444;2023-11-19T09:26:57;15.50;69.70
68719;DHT22;55696;52.138;5.444;2023-11-19T09:29:24;15.60;69.60
68719;DHT22;55696;52.138;5.444;2023-11-19T09:31:51;15.40;69.50
68719;DHT22;55696;52.138;5.444;2023-11-19T09:34:18;16.70;70.10
68719;DHT22;55696;52.138;5.444;2023-11-19T09:36:45;15.60;69.40
68719;DHT22;55696;52.138;5.444;2023-11-19T09:39:12;15.80;69.40
68719;DHT22;55696;52.138;5.444;2023-11-19T09:41:41;15.40;69.00
68719;DHT22;55696;52.138;5.444;2023-11-19T09:44:09;15.60;69.30
68719;DHT22;55696;52.138;5.444;2023-11-19T09:46:41;16.80;70.80
68719;DHT22;55696;52.138;5.444;2023-11-19T09:49:08;15.70;70.90
68719;DHT22;55696;52.138;5.444;2023-11-19T09:51:36;16.30;69.60
68719;DHT22;55696;52.138;5.444;2023-11-19T09:54:04;15.60;69.10
68719;DHT22;55696;52.138;5.444;2023-11-19T09:56:31;15.90;69.00
68719;DHT22;55696;52.138;5.444;2023-11-19T09:58:59;15.90;69.00
68719;DHT22;55696;52.138;5.444;2023-11-19T10:01:26;16.80;69.10
68719;DHT22;55696;52.138;5.444;2023-11-19T10:03:55;15.80;68.30
68719;DHT22;55696;52.138;5.444;2023-11-19T10:06:24;16.80;69.50
68719;DHT22;55696;52.138;5.444;2023-11-19T10:08:53;15.80;68.70
68719;DHT22;55696;52.138;5.444;2023-11-19T10:11:20;17.10;68.50
68719;DHT22;55696;52.138;5.444;2023-11-19T10:13:46;15.90;67.80
68719;DHT22;55696;52.138;5.444;2023-11-19T10:16:15;16.80;68.20
68719;DHT22;55696;52.138;5.444;2023-11-19T10:18:46;16.00;67.70
68719;DHT22;55696;52.138;5.444;2023-11-19T10:21:13;16.20;69.20
68719;DHT22;55696;52.138;5.444;2023-11-19T10:23:54;16.80;68.20
68719;DHT22;55696;52.138;5.444;2023-11-19T10:26:23;16.20;69.20
68719;DHT22;55696;52.138;5.444;2023-11-19T10:28:50;16.50;67.60
68719;DHT22;55696;52.138;5.444;2023-11-19T10:31:18;16.50;66.80
68719;DHT22;55696;52.138;5.444;2023-11-19T10:33:45;16.60;66.70
68719;DHT22;55696;52.138;5.444;2023-11-19T10:36:14;16.70;66.00
68719;DHT22;55696;52.138;5.444;2023-11-19T10:38:54;16.80;65.60
68719;DHT22;55696;52.138;5.444;2023-11-19T10:41:29;17.30;67.10
68719;DHT22;55696;52.138;5.444;2023-11-19T10:43:58;17.20;66.30
68719;DHT22;55696;52.138;5.444;2023-11-19T10:46:39;16.50;64.90
68719;DHT22;55696;52.138;5.444;2023-11-19T10:49:08;16.60;66.20
68719;DHT22;55696;52.138;5.444;2023-11-19T10:51:35;16.70;65.20
68719;DHT22;55696;52.138;5.444;2023-11-19T10:54:04;17.60;66.10
68719;DHT22;55696;52.138;5.444;2023-11-19T10:56:34;17.00;65.60
68719;DHT22;55696;52.138;5.444;2023-11-19T10:59:02;17.20;64.60
68719;DHT22;55696;52.138;5.444;2023-11-19T11:01:48;17.10;63.90
68719;DHT22;55696;52.138;5.444;2023-11-19T11:04:23;16.80;64.00
68719;DHT22;55696;52.138;5.444;2023-11-19T11:06:51;17.10;64.80
68719;DHT22;55696;52.138;5.444;2023-11-19T11:09:18;17.20;64.00
68719;DHT22;55696;52.138;5.444;2023-11-19T11:11:47;17.10;63.30
68719;DHT22;55696;52.138;5.444;2023-11-19T11:14:14;17.20;64.40
68719;DHT22;55696;52.138;5.444;2023-11-19T11:16:43;16.90;63.50
68719;DHT22;55696;52.138;5.444;2023-11-19T11:19:11;17.90;64.50
68719;DHT22;55696;52.138;5.444;2023-11-19T11:21:40;16.80;63.90
68719;DHT22;55696;52.138;5.444;2023-11-19T11:24:24;17.00;64.30
68719;DHT22;55696;52.138;5.444;2023-11-19T11:27:23;17.00;64.60
68719;DHT22;55696;52.138;5.444;2023-11-19T11:30:06;17.20;64.30
68719;DHT22;55696;52.138;5.444;2023-11-19T11:32:49;16.90;64.90
68719;DHT22;55696;52.138;5.444;2023-11-19T11:38:09;17.00;65.10
68719;DHT22;55696;52.138;5.444;2023-11-19T11:40:36;17.00;63.60
68719;DHT22;55696;52.138;5.444;2023-11-19T11:43:03;17.10;63.60
68719;DHT22;55696;52.138;5.444;2023-11-19T11:45:40;17.00;63.20
68719;DHT22;55696;52.138;5.444;2023-11-19T11:48:15;17.20;64.30
68719;DHT22;55696;52.138;5.444;2023-11-19T11:50:56;17.00;64.50
68719;DHT22;55696;52.138;5.444;2023-11-19T11:53:25;17.20;65.50
68719;DHT22;55696;52.138;5.444;2023-11-19T11:55:54;17.00;64.20
68719;DHT22;55696;52.138;5.444;2023-11-19T11:58:27;17.10;64.10
68719;DHT22;55696;52.138;5.444;2023-11-19T12:00:54;17.00;64.50
68719;DHT22;55696;52.138;5.444;2023-11-19T12:03:23;16.90;63.40
68719;DHT22;55696;52.138;5.444;2023-11-19T12:05:50;16.90;63.60
68719;DHT22;55696;52.138;5.444;2023-11-19T12:08:20;16.80;63.40
68719;DHT22;55696;52.138;5.444;2023-11-19T12:10:54;17.00;64.30
68719;DHT22;55696;52.138;5.444;2023-11-19T12:13:29;17.10;64.20
68719;DHT22;55696;52.138;5.444;2023-11-19T12:16:09;16.90;63.70
68719;DHT22;55696;52.138;5.444;2023-11-19T12:18:39;17.00;63.60
68719;DHT22;55696;52.138;5.444;2023-11-19T12:21:06;16.80;64.50
68719;DHT22;55696;52.138;5.444;2023-11-19T12:23:44;16.80;63.80
68719;DHT22;55696;52.138;5.444;2023-11-19T12:26:31;16.90;65.20
68719;DHT22;55696;52.138;5.444;2023-11-19T12:28:59;16.80;64.70
68719;DHT22;55696;52.138;5.444;2023-11-19T12:31:26;17.00;63.50
68719;DHT22;55696;52.138;5.444;2023-11-19T12:33:53;18.20;63.80
68719;DHT22;55696;52.138;5.444;2023-11-19T12:36:20;16.90;63.40
68719;DHT22;55696;52.138;5.444;2023-11-19T12:38:48;16.70;63.40
68719;DHT22;55696;52.138;5.444;2023-11-19T12:41:15;16.80;63.70
68719;DHT22;55696;52.138;5.444;2023-11-19T12:43:47;16.60;63.80
68719;DHT22;55696;52.138;5.444;2023-11-19T12:46:20;16.80;64.00
68719;DHT22;55696;52.138;5.444;2023-11-19T12:48:49;16.90;64.20
68719;DHT22;55696;52.138;5.444;2023-11-19T12:51:16;16.70;64.50
68719;DHT22;55696;52.138;5.444;2023-11-19T12:53:53;16.80;64.00
68719;DHT22;55696;52.138;5.444;2023-11-19T12:56:25;16.70;65.70
68719;DHT22;55696;52.138;5.444;2023-11-19T12:58:51;17.20;64.50
68719;DHT22;55696;52.138;5.444;2023-11-19T13:01:19;16.60;64.20
68719;DHT22;55696;52.138;5.444;2023-11-19T13:03:47;16.40;64.60
68719;DHT22;55696;52.138;5.444;2023-11-19T13:06:16;16.50;64.60
68719;DHT22;55696;52.138;5.444;2023-11-19T13:08:44;17.10;64.40
68719;DHT22;55696;52.138;5.444;2023-11-19T13:11:13;17.30;65.30
68719;DHT22;55696;52.138;5.444;2023-11-19T13:13:59;16.50;64.80
68719;DHT22;55696;52.138;5.444;2023-11-19T13:16:27;16.70;65.60
68719;DHT22;55696;52.138;5.444;2023-11-19T13:18:54;16.60;64.70
68719;DHT22;55696;52.138;5.444;2023-11-19T13:21:22;16.50;64.40
68719;DHT22;55696;52.138;5.444;2023-11-19T13:23:49;17.40;64.80
68719;DHT22;55696;52.138;5.444;2023-11-19T13:26:16;16.20;64.50
68719;DHT22;55696;52.138;5.444;2023-11-19T13:28:42;16.60;64.90
68719;DHT22;55696;52.138;5.444;2023-11-19T13:31:09;16.40;65.00
68719;DHT22;55696;52.138;5.444;2023-11-19T13:33:37;16.40;65.40
68719;DHT22;55696;52.138;5.444;2023-11-19T13:36:05;16.40;65.50
68719;DHT22;55696;52.138;5.444;2023-11-19T13:38:34;16.60;66.30
68719;DHT22;55696;52.138;5.444;2023-11-19T13:41:04;16.50;66.30
68719;DHT22;55696;52.138;5.444;2023-11-19T13:43:31;16.60;66.10
68719;DHT22;55696;52.138;5.444;2023-11-19T13:45:58;16.50;66.00
68719;DHT22;55696;52.138;5.444;2023-11-19T13:48:26;16.50;65.90
68719;DHT22;55696;52.138;5.444;2023-11-19T13:50:54;16.50;66.20
68719;DHT22;55696;52.138;5.444;2023-11-19T13:53:22;17.60;66.40
68719;DHT22;55696;52.138;5.444;2023-11-19T13:55:50;16.70;66.20
68719;DHT22;55696;52.138;5.444;2023-11-19T13:58:17;16.60;65.40
68719;DHT22;55696;52.138;5.444;2023-11-19T14:00:44;16.80;65.50
68719;DHT22;55696;52.138;5.444;2023-11-19T14:03:10;16.80;65.60
68719;DHT22;55696;52.138;5.444;2023-11-19T14:05:38;17.30;66.10
68719;DHT22;55696;52.138;5.444;2023-11-19T14:08:05;16.50;66.20
68719;DHT22;55696;52.138;5.444;2023-11-19T14:10:51;16.40;65.50
68719;DHT22;55696;52.138;5.444;2023-11-19T14:13:18;16.40;66.40
68719;DHT22;55696;52.138;5.444;2023-11-19T14:15:45;16.40;66.30
68719;DHT22;55696;52.138;5.444;2023-11-19T14:18:16;16.30;66.30
68719;DHT22;55696;52.138;5.444;2023-11-19T14:20:43;16.30;66.50
68719;DHT22;55696;52.138;5.444;2023-11-19T14:23:10;16.40;66.60
68719;DHT22;55696;52.138;5.444;2023-11-19T14:25:37;16.20;66.50
68719;DHT22;55696;52.138;5.444;2023-11-19T14:28:04;16.20;66.70
68719;DHT22;55696;52.138;5.444;2023-11-19T14:30:32;16.00;66.90
68719;DHT22;55696;52.138;5.444;2023-11-19T14:33:01;16.50;67.20
68719;DHT22;55696;52.138;5.444;2023-11-19T14:35:29;16.80;68.00
68719;DHT22;55696;52.138;5.444;2023-11-19T14:37:57;15.70;67.30
68719;DHT22;55696;52.138;5.444;2023-11-19T14:40:23;15.90;67.60
68719;DHT22;55696;52.138;5.444;2023-11-19T14:43:08;15.60;67.70
68719;DHT22;55696;52.138;5.444;2023-11-19T14:45:38;17.30;68.60
68719;DHT22;55696;52.138;5.444;2023-11-19T14:48:15;15.90;68.10
68719;DHT22;55696;52.138;5.444;2023-11-19T14:50:44;16.00;68.50
68719;DHT22;55696;52.138;5.444;2023-11-19T14:53:11;16.50;68.40
68719;DHT22;55696;52.138;5.444;2023-11-19T14:55:38;16.90;68.50
68719;DHT22;55696;52.138;5.444;2023-11-19T14:58:05;15.80;67.60
68719;DHT22;55696;52.138;5.444;2023-11-19T15:00:37;16.00;67.40
68719;DHT22;55696;52.138;5.444;2023-11-19T15:03:04;16.60;67.60
68719;DHT22;55696;52.138;5.444;2023-11-19T15:05:31;16.80;67.70
68719;DHT22;55696;52.138;5.444;2023-11-19T15:07:58;15.90;67.20
68719;DHT22;55696;52.138;5.444;2023-11-19T15:10:24;15.90;67.20
68719;DHT22;55696;52.138;5.444;2023-11-19T15:12:52;16.10;67.30
68719;DHT22;55696;52.138;5.444;2023-11-19T15:15:20;15.80;66.90
68719;DHT22;55696;52.138;5.444;2023-11-19T15:17:50;15.80;67.10
68719;DHT22;55696;52.138;5.444;2023-11-19T15:20:17;16.00;67.90
68719;DHT22;55696;52.138;5.444;2023-11-19T15:22:45;15.80;66.80
68719;DHT22;55696;52.138;5.444;2023-11-19T15:25:12;16.70;67.20
68719;DHT22;55696;52.138;5.444;2023-11-19T15:27:39;15.90;66.80
68719;DHT22;55696;52.138;5.444;2023-11-19T15:30:06;15.90;66.50
68719;DHT22;55696;52.138;5.444;2023-11-19T15:32:35;16.00;66.90
68719;DHT22;55696;52.138;5.444;2023-11-19T15:35:02;15.90;66.50
68719;DHT22;55696;52.138;5.444;2023-11-19T15:37:29;16.00;66.40
68719;DHT22;55696;52.138;5.444;2023-11-19T15:39:56;15.90;66.30
68719;DHT22;55696;52.138;5.444;2023-11-19T15:42:23;16.00;66.20